Time;durP1;ratioP1;P1;durP2;ratioP2;P2;SDS_P1;SDS_P2;PMS_P1;PMS_P2;Temp;Humidity;BMP_temperature;BMP_pressure;BME280_temperature;BME280_humidity;BME280_pressure;Samples;Min_cycle;Max_cycle;Signal;HPM_P1;HPM_P2
2021/05/28 00:01:34;;;;;;;1.70;0.80;;;16.40;99.90;;;;;;5052685;28;20067;-78
2021/05/28 00:04:00;;;;;;;1.35;1.05;;;16.40;99.90;;;;;;5053063;28;20029;-79
2021/05/28 00:06:26;;;;;;;1.80;0.88;;;16.30;99.90;;;;;;5052581;28;20036;-80
2021/05/28 00:08:51;;;;;;;1.10;0.80;;;16.30;99.90;;;;;;5052224;28;20040;-78
2021/05/28 00:11:17;;;;;;;2.67;1.10;;;16.20;99.90;;;;;;5051913;28;20045;-80
2021/05/28 00:13:43;;;;;;;0.80;0.80;;;16.20;99.90;;;;;;5031423;28;20470;-81
2021/05/28 00:16:09;;;;;;;3.30;0.98;;;16.10;99.90;;;;;;5044862;28;20355;-78
2021/05/28 00:18:35;;;;;;;1.27;0.90;;;16.10;99.90;;;;;;5052415;28;20381;-78
2021/05/28 00:21:00;;;;;;;1.08;0.80;;;16.10;99.90;;;;;;5052646;28;20461;-79
2021/05/28 00:23:26;;;;;;;0.80;0.80;;;16.10;99.90;;;;;;5052026;28;20485;-77
2021/05/28 00:25:52;;;;;;;1.10;0.70;;;16.10;99.90;;;;;;5052381;28;20032;-78
2021/05/28 00:28:17;;;;;;;11.05;1.05;;;16.10;99.90;;;;;;5052315;28;20063;-79
2021/05/28 00:30:43;;;;;;;1.70;0.75;;;16.10;99.90;;;;;;5052143;28;20025;-78
2021/05/28 00:33:09;;;;;;;2.08;1.10;;;16.00;99.90;;;;;;5052659;28;20036;-79
2021/05/28 00:35:34;;;;;;;1.33;0.93;;;16.00;99.90;;;;;;5052147;28;20385;-78
2021/05/28 00:38:00;;;;;;;1.00;0.70;;;16.00;99.90;;;;;;5031248;28;20029;-79
2021/05/28 00:40:26;;;;;;;1.27;0.90;;;16.00;99.90;;;;;;5032581;28;20056;-77
2021/05/28 00:42:52;;;;;;;3.97;1.00;;;16.00;99.90;;;;;;5052241;28;20029;-77
2021/05/28 00:45:17;;;;;;;2.15;1.10;;;16.00;99.90;;;;;;5051651;28;20009;-78
2021/05/28 00:47:43;;;;;;;1.13;0.73;;;16.00;99.90;;;;;;5051517;28;20055;-80
2021/05/28 00:50:10;;;;;;;1.10;1.00;;;16.00;99.90;;;;;;5051311;28;20029;-79
2021/05/28 00:52:35;;;;;;;1.40;0.98;;;16.00;99.90;;;;;;5051317;28;20028;-78
2021/05/28 00:55:02;;;;;;;0.98;0.80;;;16.00;99.90;;;;;;5051255;28;20017;-78
2021/05/28 00:57:29;;;;;;;1.33;1.05;;;15.90;99.90;;;;;;5051672;28;20025;-78
2021/05/28 00:59:57;;;;;;;1.88;0.93;;;15.90;99.90;;;;;;5051540;28;20492;-78
2021/05/28 01:02:27;;;;;;;1.42;1.15;;;15.90;99.90;;;;;;5051907;28;20587;-78
2021/05/28 01:04:53;;;;;;;1.17;0.80;;;15.80;99.90;;;;;;5051605;28;20036;-78
2021/05/28 01:07:19;;;;;;;1.08;0.98;;;15.80;99.90;;;;;;5051902;28;20025;-78
2021/05/28 01:09:45;;;;;;;0.85;0.85;;;15.80;99.90;;;;;;5051588;28;20128;-78
2021/05/28 01:12:11;;;;;;;3.45;0.98;;;15.90;99.90;;;;;;5052066;28;20092;-78
2021/05/28 01:14:38;;;;;;;1.60;0.90;;;15.90;99.90;;;;;;5051479;28;20048;-78
2021/05/28 01:17:04;;;;;;;0.80;0.80;;;15.90;99.90;;;;;;5051365;28;20120;-79
2021/05/28 01:19:30;;;;;;;3.28;0.80;;;16.00;99.90;;;;;;5029895;28;20108;-78
2021/05/28 01:22:02;;;;;;;8.68;1.00;;;16.00;99.90;;;;;;5048947;28;20025;-79
2021/05/28 01:24:28;;;;;;;2.28;1.10;;;16.10;99.90;;;;;;5051987;28;20052;-78
2021/05/28 01:26:54;;;;;;;1.48;1.27;;;16.10;99.90;;;;;;5051538;28;20552;-78
2021/05/28 01:29:19;;;;;;;1.15;0.80;;;16.10;99.90;;;;;;5030419;28;20437;-78
2021/05/28 01:31:45;;;;;;;1.05;0.95;;;16.10;99.90;;;;;;5045488;28;20033;-78
2021/05/28 01:34:11;;;;;;;1.52;0.98;;;16.10;99.90;;;;;;5030192;28;20128;-77
2021/05/28 01:36:36;;;;;;;1.08;1.00;;;16.10;99.90;;;;;;5043831;28;20021;-78
2021/05/28 01:39:03;;;;;;;0.98;0.80;;;16.10;99.90;;;;;;5051451;28;20021;-76
2021/05/28 01:41:30;;;;;;;2.85;0.85;;;16.10;99.90;;;;;;5051673;28;20100;-80
2021/05/28 01:43:56;;;;;;;0.90;0.90;;;16.20;99.90;;;;;;5051459;28;20123;-79
2021/05/28 01:46:23;;;;;;;1.05;0.95;;;16.20;99.90;;;;;;5051685;28;20065;-77
2021/05/28 01:48:50;;;;;;;4.63;1.00;;;16.20;99.90;;;;;;5050850;28;20508;-77
2021/05/28 01:51:16;;;;;;;2.42;0.70;;;16.20;99.90;;;;;;5050731;28;20025;-77
2021/05/28 01:53:42;;;;;;;0.80;0.70;;;16.20;99.90;;;;;;5050271;28;20071;-80
2021/05/28 01:56:07;;;;;;;0.88;0.80;;;16.20;99.90;;;;;;5051102;28;20454;-77
2021/05/28 01:58:33;;;;;;;1.50;0.88;;;16.20;99.90;;;;;;5051252;28;20029;-77
2021/05/28 02:00:59;;;;;;;1.17;0.85;;;16.20;99.90;;;;;;5050812;28;20474;-77
2021/05/28 02:03:25;;;;;;;1.23;0.90;;;16.30;99.90;;;;;;5049554;28;20037;-78
2021/05/28 02:05:51;;;;;;;1.95;1.00;;;16.30;99.90;;;;;;5049415;28;20017;-77
2021/05/28 02:08:17;;;;;;;2.15;0.80;;;16.30;99.90;;;;;;5048945;28;20078;-79
2021/05/28 02:10:43;;;;;;;3.17;0.90;;;16.30;99.90;;;;;;5050955;28;20409;-79
2021/05/28 02:13:09;;;;;;;6.05;0.98;;;16.30;99.90;;;;;;5053267;28;20025;-78
2021/05/28 02:15:35;;;;;;;0.90;0.88;;;16.30;99.90;;;;;;5052564;28;20074;-81
2021/05/28 02:18:02;;;;;;;1.55;1.17;;;16.30;99.90;;;;;;5053133;28;20037;-77
2021/05/28 02:20:28;;;;;;;1.48;1.05;;;16.20;99.90;;;;;;5052993;28;20021;-79
2021/05/28 02:22:53;;;;;;;3.33;1.23;;;16.20;99.90;;;;;;5052674;28;20017;-77
2021/05/28 02:25:19;;;;;;;2.25;1.05;;;16.20;99.90;;;;;;5052495;28;20401;-77
2021/05/28 02:27:45;;;;;;;2.13;0.75;;;16.20;99.90;;;;;;5051305;28;20166;-77
2021/05/28 02:30:12;;;;;;;4.03;1.35;;;16.20;99.90;;;;;;5053532;28;20013;-79
2021/05/28 02:32:38;;;;;;;1.23;0.88;;;16.10;99.90;;;;;;5055246;28;20066;-77
2021/05/28 02:35:06;;;;;;;1.00;0.93;;;16.10;99.90;;;;;;5055185;28;20017;-78
2021/05/28 02:37:33;;;;;;;2.78;1.45;;;16.10;99.90;;;;;;5055172;28;20108;-79
2021/05/28 02:39:59;;;;;;;1.15;0.80;;;16.10;99.90;;;;;;5054492;28;20028;-79
2021/05/28 02:42:25;;;;;;;3.50;0.90;;;16.10;99.90;;;;;;5054934;28;20032;-77
2021/05/28 02:44:52;;;;;;;3.72;1.05;;;16.20;99.90;;;;;;5054811;28;20021;-80
2021/05/28 02:47:18;;;;;;;0.80;0.80;;;16.10;99.90;;;;;;5054766;28;20067;-80
2021/05/28 02:49:44;;;;;;;1.83;0.88;;;16.10;99.90;;;;;;5054686;28;20036;-79
2021/05/28 02:52:09;;;;;;;4.25;0.93;;;16.10;99.90;;;;;;5054951;28;20462;-80
2021/05/28 02:54:35;;;;;;;1.42;1.10;;;16.10;99.90;;;;;;5036946;28;20102;-77
2021/05/28 02:57:01;;;;;;;1.00;0.90;;;16.10;99.90;;;;;;5055040;28;20029;-80
2021/05/28 02:59:26;;;;;;;1.27;1.00;;;16.20;99.90;;;;;;5054744;28;20362;-79
2021/05/28 03:01:52;;;;;;;3.28;1.13;;;16.20;99.90;;;;;;5036449;28;20025;-80
2021/05/28 03:04:18;;;;;;;1.10;1.00;;;16.20;99.90;;;;;;5054307;28;20021;-78
2021/05/28 03:06:44;;;;;;;1.20;0.95;;;16.20;99.90;;;;;;5054296;28;20074;-80
2021/05/28 03:09:09;;;;;;;3.65;0.88;;;16.20;99.90;;;;;;5053715;28;20032;-77
2021/05/28 03:11:35;;;;;;;3.50;1.20;;;16.10;99.90;;;;;;5054194;28;20504;-78
2021/05/28 03:14:01;;;;;;;1.10;0.80;;;16.10;99.90;;;;;;5054307;28;20115;-79
2021/05/28 03:16:28;;;;;;;5.00;0.90;;;16.10;99.90;;;;;;5054229;28;20021;-78
2021/05/28 03:18:59;;;;;;;0.95;0.90;;;16.10;99.90;;;;;;5054309;28;20029;-81
2021/05/28 03:23:59;;;;;;;1.92;0.82;;;16.10;99.90;;;;;;5053864;28;20028;-79
2021/05/28 03:26:25;;;;;;;0.68;0.68;;;16.00;99.90;;;;;;5053687;28;20021;-77
2021/05/28 03:28:53;;;;;;;4.40;1.35;;;16.00;99.90;;;;;;5053000;28;20055;-77
2021/05/28 03:31:19;;;;;;;1.08;0.98;;;16.10;99.90;;;;;;5052758;28;20029;-76
2021/05/28 03:33:45;;;;;;;0.80;0.80;;;16.00;99.90;;;;;;5035300;28;20473;-79
2021/05/28 03:36:11;;;;;;;11.10;0.90;;;16.00;99.90;;;;;;5053603;28;20029;-77
2021/05/28 03:38:37;;;;;;;1.17;0.70;;;16.00;99.90;;;;;;5053669;28;20021;-78
2021/05/28 03:41:04;;;;;;;1.20;1.10;;;15.90;99.90;;;;;;5052167;28;20025;-77
2021/05/28 03:43:30;;;;;;;0.95;0.90;;;15.90;99.90;;;;;;5022426;28;20396;-76
2021/05/28 03:45:55;;;;;;;1.48;1.00;;;16.00;99.90;;;;;;5035400;28;20105;-77
2021/05/28 03:48:21;;;;;;;2.13;0.70;;;15.90;99.90;;;;;;5053033;28;20033;-78
2021/05/28 03:50:47;;;;;;;1.52;1.10;;;16.00;99.90;;;;;;5053555;28;20029;-78
2021/05/28 03:53:13;;;;;;;2.00;0.95;;;16.00;99.90;;;;;;5053120;28;20428;-78
2021/05/28 03:55:39;;;;;;;2.25;0.95;;;16.10;99.90;;;;;;5053070;28;20112;-80
2021/05/28 03:58:05;;;;;;;10.43;1.10;;;16.10;99.90;;;;;;5053492;28;20021;-78
2021/05/28 04:00:30;;;;;;;3.20;1.05;;;16.20;99.90;;;;;;5052800;28;20035;-78
2021/05/28 04:02:56;;;;;;;3.00;0.90;;;16.20;99.90;;;;;;5035755;28;20025;-78
2021/05/28 04:05:22;;;;;;;0.95;0.85;;;16.10;99.90;;;;;;5053319;28;20021;-78
2021/05/28 04:07:48;;;;;;;3.20;1.00;;;16.10;99.90;;;;;;5052712;28;20068;-78
2021/05/28 04:10:14;;;;;;;2.88;1.20;;;16.10;99.90;;;;;;5034422;28;20119;-78
2021/05/28 04:12:40;;;;;;;1.17;1.05;;;16.10;99.90;;;;;;5052295;28;20021;-78
2021/05/28 04:15:07;;;;;;;5.35;1.15;;;16.10;99.90;;;;;;5053303;28;20053;-78
2021/05/28 04:17:33;;;;;;;4.45;1.17;;;16.20;99.90;;;;;;5052845;28;20035;-77
2021/05/28 04:19:59;;;;;;;2.08;1.20;;;16.60;99.90;;;;;;5053094;28;20021;-78
2021/05/28 04:22:25;;;;;;;2.97;0.85;;;17.00;99.90;;;;;;5052437;28;20102;-78
2021/05/28 04:24:51;;;;;;;1.38;1.02;;;17.60;99.90;;;;;;5052975;28;20024;-78
2021/05/28 04:27:17;;;;;;;1.30;1.00;;;20.00;99.90;;;;;;5052602;28;20454;-78
2021/05/28 04:29:42;;;;;;;0.80;0.70;;;22.50;99.90;;;;;;5052430;28;20048;-78
2021/05/28 04:32:08;;;;;;;1.88;1.02;;;24.70;99.90;;;;;;5051841;28;20096;-78
2021/05/28 04:34:34;;;;;;;1.42;0.60;;;26.80;99.00;;;;;;5052392;28;20021;-79
2021/05/28 04:37:00;;;;;;;1.08;0.95;;;28.40;94.40;;;;;;5052457;28;20017;-78
2021/05/28 04:39:26;;;;;;;0.57;0.52;;;29.30;92.70;;;;;;5052536;28;20021;-78
2021/05/28 04:41:54;;;;;;;1.85;0.60;;;30.30;90.10;;;;;;5051545;28;20044;-78
2021/05/28 04:44:19;;;;;;;1.00;0.50;;;31.10;85.60;;;;;;5052377;28;20046;-77
2021/05/28 04:46:45;;;;;;;1.10;0.70;;;32.10;82.10;;;;;;5051887;28;20096;-77
2021/05/28 04:49:11;;;;;;;1.55;0.50;;;32.50;78.40;;;;;;5036556;28;20119;-78
2021/05/28 04:51:36;;;;;;;2.33;0.60;;;33.10;76.10;;;;;;5052039;28;20021;-77
2021/05/28 04:54:03;;;;;;;2.72;0.82;;;33.70;73.50;;;;;;5047386;28;20548;-77
2021/05/28 04:56:28;;;;;;;3.13;0.47;;;34.20;72.00;;;;;;5051978;28;20021;-76
2021/05/28 04:58:54;;;;;;;1.02;0.80;;;34.80;70.20;;;;;;5051655;28;20032;-78
2021/05/28 05:01:20;;;;;;;2.45;0.65;;;35.30;68.90;;;;;;5051394;28;20064;-80
2021/05/28 05:03:45;;;;;;;0.70;0.70;;;34.90;68.30;;;;;;5050262;28;20444;-81
2021/05/28 05:06:11;;;;;;;3.83;0.60;;;35.20;67.90;;;;;;5032918;28;20027;-80
2021/05/28 05:08:37;;;;;;;1.55;0.63;;;35.90;66.70;;;;;;5051203;28;20040;-78
2021/05/28 05:11:03;;;;;;;1.25;0.50;;;36.50;65.10;;;;;;5051484;28;20044;-80
2021/05/28 05:13:29;;;;;;;1.52;0.50;;;36.60;64.20;;;;;;5052860;28;20025;-80
2021/05/28 05:15:54;;;;;;;0.77;0.70;;;37.10;63.10;;;;;;5052648;28;20017;-77
2021/05/28 05:18:20;;;;;;;1.35;0.50;;;37.70;62.40;;;;;;5051537;28;20374;-78
2021/05/28 05:20:46;;;;;;;1.27;0.47;;;37.70;61.40;;;;;;5051714;28;20143;-78
2021/05/28 05:23:11;;;;;;;0.93;0.40;;;38.40;59.30;;;;;;5050535;28;20040;-78
2021/05/28 05:25:38;;;;;;;2.53;0.70;;;38.70;58.80;;;;;;5049781;28;20028;-80
2021/05/28 05:28:04;;;;;;;3.33;0.40;;;38.90;58.00;;;;;;5047740;28;20683;-79
2021/05/28 05:30:30;;;;;;;0.35;0.35;;;39.20;57.10;;;;;;5051043;28;20078;-79
2021/05/28 05:32:56;;;;;;;0.98;0.40;;;39.50;56.50;;;;;;5051371;28;20120;-81
2021/05/28 05:35:21;;;;;;;4.18;0.40;;;39.50;55.90;;;;;;5051246;28;20068;-80
2021/05/28 05:37:47;;;;;;;0.40;0.30;;;39.90;55.60;;;;;;5051125;28;20021;-80
2021/05/28 05:40:13;;;;;;;1.45;0.52;;;40.50;54.40;;;;;;5052628;28;20377;-79
2021/05/28 05:42:40;;;;;;;0.25;0.22;;;40.30;54.50;;;;;;5051113;28;20488;-79
2021/05/28 05:45:08;;;;;;;2.08;0.50;;;40.90;54.10;;;;;;5055168;28;20039;-79
2021/05/28 05:47:34;;;;;;;1.48;0.70;;;41.30;53.60;;;;;;5055694;28;20441;-79
2021/05/28 05:50:00;;;;;;;1.02;0.30;;;41.30;53.30;;;;;;5055436;28;20056;-79
2021/05/28 05:52:26;;;;;;;5.90;1.00;;;41.70;52.50;;;;;;5055896;28;20063;-79
2021/05/28 05:54:51;;;;;;;0.82;0.50;;;41.90;52.20;;;;;;5055543;28;20358;-79
2021/05/28 05:57:17;;;;;;;1.05;0.50;;;42.10;51.80;;;;;;5054821;28;20112;-79
2021/05/28 05:59:43;;;;;;;1.08;0.60;;;42.40;51.40;;;;;;5055393;28;20025;-79
2021/05/28 06:02:09;;;;;;;0.40;0.30;;;42.50;50.60;;;;;;5055365;28;20025;-79
2021/05/28 06:04:35;;;;;;;0.80;0.50;;;42.60;50.40;;;;;;5054917;28;20032;-79
2021/05/28 06:07:01;;;;;;;2.53;0.60;;;42.90;50.30;;;;;;5055326;28;20013;-80
2021/05/28 06:09:27;;;;;;;5.65;0.70;;;42.70;50.70;;;;;;5055425;28;20078;-82
2021/05/28 06:11:54;;;;;;;2.40;0.60;;;42.60;49.60;;;;;;5055556;28;20017;-80
2021/05/28 06:14:20;;;;;;;5.05;0.50;;;42.70;49.20;;;;;;5055559;28;20055;-78
2021/05/28 06:16:46;;;;;;;1.10;0.47;;;43.20;49.20;;;;;;5055513;28;20477;-79
2021/05/28 06:19:12;;;;;;;5.18;0.80;;;43.60;48.90;;;;;;5055068;28;20027;-78
2021/05/28 06:21:37;;;;;;;1.30;0.50;;;43.60;48.50;;;;;;5055194;28;20083;-79
2021/05/28 06:24:04;;;;;;;1.27;0.40;;;43.50;47.90;;;;;;5055497;28;20492;-79
2021/05/28 06:26:29;;;;;;;4.57;0.60;;;44.00;47.80;;;;;;5055265;28;20021;-78
2021/05/28 06:28:55;;;;;;;0.88;0.52;;;44.40;47.10;;;;;;5055297;28;20428;-81
2021/05/28 06:31:21;;;;;;;0.55;0.30;;;44.50;46.40;;;;;;5055140;28;20033;-80
2021/05/28 06:33:47;;;;;;;0.98;0.32;;;44.60;46.50;;;;;;5037087;28;20461;-81
2021/05/28 06:36:12;;;;;;;4.78;0.47;;;44.10;46.80;;;;;;5055362;28;20048;-80
2021/05/28 06:38:38;;;;;;;3.35;0.60;;;43.50;46.80;;;;;;5055272;28;20048;-81
2021/05/28 06:41:04;;;;;;;0.55;0.35;;;43.70;46.50;;;;;;5055202;28;20021;-79
2021/05/28 06:43:29;;;;;;;1.35;0.30;;;43.10;46.50;;;;;;5055058;28;20028;-80
2021/05/28 06:45:55;;;;;;;1.80;0.75;;;43.40;46.20;;;;;;5054937;28;20017;-80
2021/05/28 06:48:21;;;;;;;3.20;0.45;;;42.90;49.50;;;;;;5055047;28;20021;-79
2021/05/28 06:50:46;;;;;;;0.90;0.55;;;42.20;51.20;;;;;;5055198;28;20079;-80
2021/05/28 06:53:12;;;;;;;4.80;0.70;;;40.90;52.20;;;;;;5054691;28;20446;-79
2021/05/28 06:55:39;;;;;;;1.00;0.60;;;39.20;53.90;;;;;;5053643;28;20027;-80
2021/05/28 06:58:05;;;;;;;8.60;3.40;;;37.60;56.20;;;;;;5054978;28;20036;-79
2021/05/28 07:00:31;;;;;;;3.33;1.20;;;36.10;58.50;;;;;;5054544;28;20032;-79
2021/05/28 07:02:57;;;;;;;0.85;0.63;;;34.60;59.80;;;;;;5054984;28;20025;-78
2021/05/28 07:05:24;;;;;;;1.42;0.90;;;33.00;61.60;;;;;;5054876;28;20097;-79
2021/05/28 07:07:51;;;;;;;1.75;0.57;;;31.70;64.10;;;;;;5054688;28;20021;-79
2021/05/28 07:10:17;;;;;;;2.15;1.00;;;30.70;65.30;;;;;;5054173;28;20081;-79
2021/05/28 07:12:43;;;;;;;0.88;0.57;;;29.90;67.00;;;;;;5053797;28;20052;-78
2021/05/28 07:15:09;;;;;;;9.20;1.10;;;29.40;68.10;;;;;;5054012;28;20587;-81
2021/05/28 07:17:35;;;;;;;2.35;0.90;;;28.60;69.00;;;;;;5053681;28;20070;-80
2021/05/28 07:20:01;;;;;;;9.68;1.33;;;27.60;70.50;;;;;;5052980;28;20096;-81
2021/05/28 07:22:27;;;;;;;1.60;0.90;;;27.10;71.40;;;;;;5057395;28;20398;-78
2021/05/28 07:24:52;;;;;;;13.20;1.08;;;26.70;70.80;;;;;;5053356;28;20025;-80
2021/05/28 07:27:18;;;;;;;2.47;0.98;;;26.20;72.60;;;;;;5056200;28;20392;-78
2021/05/28 07:29:45;;;;;;;4.65;1.30;;;26.10;72.60;;;;;;5054385;28;20036;-79
2021/05/28 07:32:12;;;;;;;4.45;0.82;;;26.10;74.00;;;;;;5050782;28;20025;-78
2021/05/28 07:34:38;;;;;;;3.38;0.73;;;26.10;75.60;;;;;;5034257;28;20373;-80
2021/05/28 07:37:05;;;;;;;1.33;0.75;;;26.20;76.20;;;;;;5063078;28;20076;-78
2021/05/28 07:39:31;;;;;;;2.95;1.10;;;26.10;75.70;;;;;;5053944;28;20025;-80
2021/05/28 07:42:02;;;;;;;1.63;1.17;;;26.20;73.90;;;;;;5055610;28;20028;-78
2021/05/28 07:44:28;;;;;;;1.00;0.70;;;26.10;72.80;;;;;;5053473;28;20373;-78
2021/05/28 07:46:54;;;;;;;3.03;0.90;;;26.20;71.80;;;;;;5059112;28;20040;-78
2021/05/28 07:49:20;;;;;;;0.82;0.77;;;26.20;71.40;;;;;;5056640;28;20047;-79
2021/05/28 07:51:46;;;;;;;2.58;0.80;;;26.20;71.20;;;;;;5062476;28;20469;-79
2021/05/28 07:54:12;;;;;;;3.10;0.88;;;26.10;71.20;;;;;;5048492;28;21491;-78
2021/05/28 07:56:38;;;;;;;1.67;0.57;;;26.20;71.10;;;;;;5052929;28;20029;-79
2021/05/28 07:59:07;;;;;;;3.70;1.38;;;26.20;70.90;;;;;;5051874;28;20029;-80
2021/05/28 08:01:33;;;;;;;3.00;1.00;;;26.30;71.10;;;;;;5052736;28;20055;-80
2021/05/28 08:03:59;;;;;;;15.82;1.10;;;26.30;71.30;;;;;;5052546;28;20021;-81
2021/05/28 08:06:25;;;;;;;1.55;0.88;;;26.20;71.00;;;;;;5049963;28;20078;-82
2021/05/28 08:08:52;;;;;;;4.38;1.63;;;26.20;70.90;;;;;;5033513;28;20064;-84
2021/05/28 08:11:18;;;;;;;3.60;0.73;;;26.10;71.80;;;;;;5035036;28;20486;-80
2021/05/28 08:13:44;;;;;;;2.30;1.00;;;26.10;71.40;;;;;;5051873;28;20029;-79
2021/05/28 08:16:10;;;;;;;0.98;0.75;;;26.00;70.90;;;;;;5052882;28;20017;-81
2021/05/28 08:18:36;;;;;;;3.50;0.88;;;25.90;71.40;;;;;;5053068;28;20021;-81
2021/05/28 08:21:04;;;;;;;3.22;0.75;;;25.90;70.80;;;;;;5052959;28;20381;-80
2021/05/28 08:23:30;;;;;;;2.80;0.70;;;25.90;71.60;;;;;;5052643;28;20025;-82
2021/05/28 08:25:55;;;;;;;3.45;0.80;;;25.90;71.70;;;;;;5052944;28;20439;-80
2021/05/28 08:28:21;;;;;;;1.77;0.88;;;26.00;70.10;;;;;;5052614;28;20104;-81
2021/05/28 08:30:47;;;;;;;1.63;0.80;;;26.10;70.80;;;;;;5052491;28;20078;-80
2021/05/28 08:33:14;;;;;;;7.78;0.98;;;26.20;69.60;;;;;;5052547;28;20068;-80
2021/05/28 08:35:44;;;;;;;7.30;0.70;;;26.20;70.20;;;;;;5052045;28;20035;-80
2021/05/28 08:38:10;;;;;;;6.25;0.93;;;26.10;70.40;;;;;;5032678;28;20061;-81
2021/05/28 08:40:36;;;;;;;1.95;0.77;;;26.20;70.50;;;;;;5052716;28;20041;-81
2021/05/28 08:43:05;;;;;;;0.88;0.70;;;26.30;70.00;;;;;;5033170;28;20473;-81
2021/05/28 08:45:35;;;;;;;4.93;1.23;;;26.20;70.10;;;;;;5051436;28;20504;-81
2021/05/28 08:48:02;;;;;;;1.02;0.60;;;25.90;70.30;;;;;;5050224;28;20388;-81
2021/05/28 08:50:28;;;;;;;1.48;0.98;;;25.70;70.80;;;;;;5051595;28;20025;-81
2021/05/28 08:52:54;;;;;;;1.83;0.85;;;25.60;71.50;;;;;;5051372;28;20021;-80
2021/05/28 08:55:20;;;;;;;0.93;0.82;;;25.40;71.60;;;;;;5051238;28;20096;-81
2021/05/28 08:57:45;;;;;;;3.00;0.95;;;25.40;72.30;;;;;;5051044;28;20128;-80
2021/05/28 09:00:12;;;;;;;3.78;0.93;;;25.40;72.60;;;;;;5050978;28;20032;-79
2021/05/28 09:02:40;;;;;;;2.00;0.95;;;25.40;72.40;;;;;;5051147;28;20027;-81
2021/05/28 09:05:17;;;;;;;1.55;0.75;;;25.40;72.80;;;;;;5051539;28;20036;-80
2021/05/28 09:07:58;;;;;;;1.17;0.85;;;25.50;73.20;;;;;;5051527;28;20347;-80
2021/05/28 09:10:37;;;;;;;2.03;0.90;;;25.40;75.20;;;;;;5051739;28;20047;-79
2021/05/28 09:13:09;;;;;;;2.47;1.00;;;25.30;75.40;;;;;;5050402;28;20040;-78
2021/05/28 09:15:35;;;;;;;10.95;1.50;;;25.30;76.70;;;;;;5052503;28;20516;-78
2021/05/28 09:18:01;;;;;;;1.92;1.08;;;25.00;78.50;;;;;;5049545;28;20773;-77
2021/05/28 09:20:27;;;;;;;2.60;1.10;;;24.80;80.90;;;;;;5048399;28;20029;-79
2021/05/28 09:23:11;;;;;;;3.50;1.15;;;24.60;81.80;;;;;;5049815;28;20031;-78
2021/05/28 09:26:02;;;;;;;1.73;1.00;;;24.70;82.70;;;;;;5048701;28;20021;-78
2021/05/28 09:28:28;;;;;;;4.30;0.90;;;24.70;82.20;;;;;;5048775;28;20017;-79
2021/05/28 09:30:56;;;;;;;4.22;1.08;;;24.70;82.90;;;;;;5049018;28;20409;-79
2021/05/28 09:33:23;;;;;;;11.23;1.40;;;24.50;81.60;;;;;;5046378;28;20037;-78
2021/05/28 09:35:50;;;;;;;4.50;0.80;;;24.40;80.70;;;;;;5049847;28;20096;-80
2021/05/28 09:38:23;;;;;;;3.70;0.90;;;24.40;82.70;;;;;;5049961;28;20033;-78
2021/05/28 09:40:50;;;;;;;1.13;0.90;;;24.30;82.80;;;;;;5049912;28;20009;-78
2021/05/28 09:43:25;;;;;;;4.30;1.08;;;24.20;83.50;;;;;;5050019;28;20025;-78
2021/05/28 09:45:51;;;;;;;2.35;0.82;;;24.00;83.40;;;;;;5050137;28;20013;-79
2021/05/28 09:48:16;;;;;;;7.65;1.40;;;23.90;83.10;;;;;;5049369;28;20036;-79
2021/05/28 09:50:44;;;;;;;2.05;1.30;;;24.00;85.20;;;;;;5048376;28;20013;-80
2021/05/28 09:53:51;;;;;;;4.00;1.10;;;24.00;85.10;;;;;;5051005;28;20013;-79
2021/05/28 09:56:28;;;;;;;5.85;0.90;;;24.00;85.00;;;;;;5044743;28;20115;-79
2021/05/28 09:59:04;;;;;;;1.52;0.80;;;24.00;86.70;;;;;;5032646;28;20040;-79
2021/05/28 10:01:30;;;;;;;3.55;1.25;;;23.80;86.00;;;;;;5049684;28;20075;-81
2021/05/28 10:04:09;;;;;;;4.32;1.00;;;23.70;88.30;;;;;;5050732;28;20021;-79
2021/05/28 10:06:37;;;;;;;3.35;1.02;;;23.80;88.30;;;;;;5050954;28;20017;-80
2021/05/28 10:09:06;;;;;;;1.73;1.20;;;23.80;88.70;;;;;;5050396;28;20638;-79
2021/05/28 10:11:33;;;;;;;2.28;0.80;;;24.00;88.60;;;;;;5049930;28;20072;-79
2021/05/28 10:14:00;;;;;;;1.83;0.80;;;24.10;88.60;;;;;;5047900;28;20020;-80
2021/05/28 10:16:26;;;;;;;2.67;1.05;;;24.00;86.20;;;;;;5050410;28;20096;-79
2021/05/28 10:18:56;;;;;;;3.30;1.02;;;24.00;86.30;;;;;;5050797;28;20029;-78
2021/05/28 10:21:23;;;;;;;1.02;0.65;;;24.10;84.80;;;;;;5052698;28;20110;-79
2021/05/28 10:23:49;;;;;;;1.52;0.85;;;24.00;83.50;;;;;;5050788;28;20055;-78
2021/05/28 10:26:23;;;;;;;6.43;0.82;;;23.90;84.40;;;;;;5050667;28;20017;-78
2021/05/28 10:28:48;;;;;;;1.08;0.80;;;23.90;85.40;;;;;;5050088;28;20021;-79
2021/05/28 10:31:14;;;;;;;1.70;1.10;;;24.00;85.50;;;;;;5040495;28;20021;-78
2021/05/28 10:33:49;;;;;;;2.67;1.10;;;24.10;84.60;;;;;;5035223;28;20029;-79
2021/05/28 10:36:41;;;;;;;2.00;1.33;;;24.40;84.70;;;;;;5052785;28;20075;-80
2021/05/28 10:39:09;;;;;;;9.98;1.20;;;24.60;83.60;;;;;;5053207;28;20099;-78
2021/05/28 10:41:36;;;;;;;2.67;1.27;;;24.80;80.50;;;;;;5053592;28;20024;-79
2021/05/28 10:44:14;;;;;;;1.33;0.90;;;24.80;79.70;;;;;;5053453;28;20431;-79
2021/05/28 10:46:58;;;;;;;1.60;1.08;;;24.70;78.80;;;;;;5036096;28;20099;-80
2021/05/28 10:50:02;;;;;;;1.08;0.93;;;24.70;81.30;;;;;;5053552;28;20071;-79
2021/05/28 10:52:37;;;;;;;5.03;1.10;;;24.40;80.90;;;;;;5012500;28;20040;-79
2021/05/28 10:55:12;;;;;;;0.70;0.70;;;24.30;82.10;;;;;;5053064;28;20029;-79
2021/05/28 10:57:49;;;;;;;1.98;0.77;;;24.10;82.20;;;;;;5053342;28;20029;-79
2021/05/28 11:00:29;;;;;;;1.85;0.90;;;24.00;81.10;;;;;;5053124;28;20108;-80
2021/05/28 11:03:00;;;;;;;1.35;0.60;;;24.00;81.30;;;;;;5051155;28;20092;-79
2021/05/28 11:05:47;;;;;;;5.50;0.85;;;23.80;81.70;;;;;;5053024;28;20021;-80
2021/05/28 11:08:41;;;;;;;1.05;0.80;;;23.70;82.30;;;;;;5050736;28;20377;-78
2021/05/28 11:11:08;;;;;;;5.68;0.90;;;23.80;85.50;;;;;;5052577;28;20043;-79
2021/05/28 11:13:57;;;;;;;2.45;1.00;;;23.90;86.70;;;;;;5053460;28;20386;-79
2021/05/28 11:16:24;;;;;;;2.47;1.10;;;23.90;87.20;;;;;;5051966;28;20021;-79
2021/05/28 11:18:50;;;;;;;1.48;1.00;;;23.90;85.90;;;;;;5051043;28;20025;-78
2021/05/28 11:21:21;;;;;;;0.95;0.77;;;23.90;83.60;;;;;;5052292;28;20533;-79
2021/05/28 11:23:49;;;;;;;1.63;1.13;;;23.90;85.20;;;;;;5033867;28;20076;-79
2021/05/28 11:26:38;;;;;;;6.60;1.08;;;23.80;87.20;;;;;;5052108;28;20028;-78
2021/05/28 11:29:03;;;;;;;4.97;0.70;;;23.90;87.00;;;;;;5053014;28;20025;-79
2021/05/28 11:31:30;;;;;;;5.00;1.05;;;24.00;87.20;;;;;;5052995;28;20110;-78
2021/05/28 11:34:00;;;;;;;4.28;0.73;;;23.90;88.10;;;;;;5052589;28;20543;-78
2021/05/28 11:36:33;;;;;;;4.07;0.75;;;23.90;87.40;;;;;;5053552;28;20448;-79
2021/05/28 11:39:09;;;;;;;3.22;0.70;;;23.90;87.00;;;;;;5051560;28;20454;-77
2021/05/28 11:41:57;;;;;;;2.95;0.98;;;23.70;86.50;;;;;;5053440;28;20032;-77
2021/05/28 11:44:23;;;;;;;4.50;1.55;;;23.60;88.40;;;;;;5050779;28;20037;-79
2021/05/28 11:46:51;;;;;;;2.95;0.85;;;23.70;88.70;;;;;;5052206;28;20102;-78
2021/05/28 11:49:18;;;;;;;3.85;0.88;;;23.80;88.70;;;;;;5053482;28;20012;-78
2021/05/28 11:51:45;;;;;;;2.08;1.13;;;23.80;88.80;;;;;;5053227;28;20025;-78
2021/05/28 11:54:25;;;;;;;2.78;1.35;;;23.80;88.70;;;;;;5053158;28;20432;-78
2021/05/28 11:56:53;;;;;;;0.88;0.70;;;23.90;90.20;;;;;;5053264;28;20032;-78
2021/05/28 11:59:19;;;;;;;3.13;1.23;;;23.80;90.10;;;;;;5053266;28;20036;-79
2021/05/28 12:01:44;;;;;;;2.95;0.75;;;23.80;90.30;;;;;;5053712;28;20376;-79
2021/05/28 12:04:17;;;;;;;2.97;1.38;;;23.70;90.70;;;;;;5053540;28;20027;-79
2021/05/28 12:06:43;;;;;;;3.10;1.08;;;23.60;90.50;;;;;;5053414;28;20381;-79
2021/05/28 12:09:09;;;;;;;1.00;0.80;;;23.50;91.20;;;;;;5053270;28;20025;-78
2021/05/28 12:11:34;;;;;;;5.20;1.10;;;23.50;91.30;;;;;;5053362;28;20055;-79
2021/05/28 12:14:00;;;;;;;3.55;1.15;;;23.50;91.80;;;;;;5053603;28;20060;-79
2021/05/28 12:16:26;;;;;;;4.78;1.40;;;23.40;91.50;;;;;;5051494;28;20032;-80
2021/05/28 12:18:52;;;;;;;1.77;0.90;;;23.40;91.90;;;;;;5050663;28;20564;-78
2021/05/28 12:21:20;;;;;;;3.53;0.85;;;23.40;91.90;;;;;;5051361;28;20025;-78
2021/05/28 12:23:48;;;;;;;9.90;1.05;;;23.40;91.00;;;;;;5052061;28;20491;-78
2021/05/28 12:26:16;;;;;;;3.72;1.23;;;23.40;89.50;;;;;;5051393;28;20029;-77
2021/05/28 12:28:45;;;;;;;12.55;1.40;;;23.50;89.50;;;;;;5052707;28;20378;-78
2021/05/28 12:31:10;;;;;;;1.63;0.88;;;23.70;90.30;;;;;;5052687;28;20021;-78
2021/05/28 12:33:39;;;;;;;3.15;1.27;;;23.80;90.80;;;;;;5052011;28;20029;-77
2021/05/28 12:36:07;;;;;;;2.08;0.90;;;23.70;90.60;;;;;;5033365;28;20048;-79
2021/05/28 12:38:36;;;;;;;5.10;0.93;;;23.50;90.80;;;;;;5051924;28;20112;-80
2021/05/28 12:41:04;;;;;;;3.17;1.13;;;23.50;91.40;;;;;;5051932;28;20017;-79
2021/05/28 12:43:31;;;;;;;2.70;1.30;;;23.50;91.20;;;;;;5052065;28;20023;-80
2021/05/28 12:45:58;;;;;;;5.25;1.33;;;23.50;92.50;;;;;;5052181;28;20020;-81
2021/05/28 12:48:43;;;;;;;4.82;1.42;;;23.50;93.70;;;;;;5052316;28;20021;-81
2021/05/28 12:51:13;;;;;;;2.10;1.20;;;23.70;93.90;;;;;;5048508;28;20150;-79